createdAt,value
2022-11-29T00:00:31.432Z,0.6
2022-11-29T00:01:38.655Z,0.6
2022-11-29T00:02:45.994Z,0.6
2022-11-29T00:03:53.003Z,0.6
2022-11-29T00:05:00.154Z,0.6
2022-11-29T00:06:07.542Z,0.6
2022-11-29T00:07:14.730Z,0.6
2022-11-29T00:08:21.930Z,0.6
2022-11-29T00:09:29.126Z,0.6
2022-11-29T00:10:36.194Z,0.7
2022-11-29T00:11:43.315Z,0.6
2022-11-29T00:12:55.688Z,0.6
2022-11-29T00:14:02.721Z,0.7
2022-11-29T00:15:10.074Z,0.6
2022-11-29T00:16:17.500Z,0.6
2022-11-29T00:17:24.778Z,0.6
2022-11-29T00:18:31.682Z,0.6
2022-11-29T00:19:38.971Z,0.6
2022-11-29T00:20:46.169Z,0.6
2022-11-29T00:21:53.102Z,0.6
2022-11-29T00:23:00.285Z,0.6
2022-11-29T00:24:07.780Z,0.6
2022-11-29T00:25:14.923Z,0.6
2022-11-29T00:26:22.093Z,0.6
2022-11-29T00:27:29.339Z,0.5
2022-11-29T00:28:36.286Z,0.5
2022-11-29T00:29:43.426Z,0.5
2022-11-29T00:30:50.752Z,0.5
2022-11-29T00:31:57.930Z,0.6
2022-11-29T00:33:04.997Z,0.6
2022-11-29T00:34:11.874Z,0.6
2022-11-29T00:35:19.131Z,0.6
2022-11-29T00:36:26.230Z,0.6
2022-11-29T00:37:33.523Z,0.6
2022-11-29T00:38:40.573Z,0.6
2022-11-29T00:39:47.698Z,0.5
2022-11-29T00:40:54.818Z,0.5
2022-11-29T00:42:01.946Z,0.5
2022-11-29T00:43:08.933Z,0.5
2022-11-29T00:44:20.028Z,0.4
2022-11-29T00:45:23.770Z,0.4
2022-11-29T00:46:30.770Z,0.4
2022-11-29T00:47:37.975Z,0.4
2022-11-29T00:48:45.265Z,0.4
2022-11-29T00:49:52.219Z,0.4
2022-11-29T00:50:59.446Z,0.3
2022-11-29T00:52:06.826Z,0.3
2022-11-29T00:53:13.919Z,0.3
2022-11-29T00:54:21.056Z,0.3
2022-11-29T00:55:28.238Z,0.3
2022-11-29T00:56:35.414Z,0.2
2022-11-29T00:57:42.958Z,0.2
2022-11-29T00:58:53.578Z,0.1
2022-11-29T01:00:00.962Z,0.2
2022-11-29T01:01:08.441Z,0.1
2022-11-29T01:02:15.541Z,0.2
2022-11-29T01:03:22.597Z,0.1
2022-11-29T01:04:29.838Z,0.1
2022-11-29T01:05:37.334Z,0.1
2022-11-29T01:06:44.622Z,0.1
2022-11-29T01:07:54.922Z,0.1
2022-11-29T01:09:01.996Z,0.2
2022-11-29T01:10:08.938Z,0.2
2022-11-29T01:11:16.117Z,0.2
2022-11-29T01:12:25.834Z,0.2
2022-11-29T01:13:33.027Z,0.2
2022-11-29T01:14:40.222Z,0.2
2022-11-29T01:15:47.298Z,0.2
2022-11-29T01:16:54.460Z,0.2
2022-11-29T01:18:01.594Z,0.2
2022-11-29T01:19:08.562Z,0.2
2022-11-29T01:20:15.723Z,0.2
2022-11-29T01:21:23.002Z,0.2
2022-11-29T01:22:29.943Z,0.3
2022-11-29T01:23:40.162Z,0.3
2022-11-29T01:24:47.359Z,0.2
2022-11-29T01:25:54.547Z,0.2
2022-11-29T01:27:06.621Z,0.2
2022-11-29T01:28:13.703Z,0.1
2022-11-29T01:29:20.862Z,0.1
2022-11-29T01:30:28.262Z,0.2
2022-11-29T01:31:35.274Z,0.2
2022-11-29T01:32:42.335Z,0.1
2022-11-29T01:33:49.463Z,0.1
2022-11-29T01:34:56.696Z,0.1
2022-11-29T01:36:03.807Z,0
2022-11-29T01:37:10.889Z,0
2022-11-29T01:38:17.990Z,0.1
2022-11-29T01:39:25.019Z,0.1
2022-11-29T01:40:32.183Z,0.1
2022-11-29T01:41:39.309Z,0.1
2022-11-29T01:42:46.502Z,0
2022-11-29T01:43:53.835Z,0
2022-11-29T01:45:05.915Z,0
2022-11-29T01:46:18.014Z,0
2022-11-29T01:47:25.154Z,0
2022-11-29T01:48:32.510Z,0
2022-11-29T01:49:39.439Z,0
2022-11-29T01:50:46.586Z,-0.1
2022-11-29T01:51:53.773Z,-0.1
2022-11-29T01:53:08.966Z,-0.1
2022-11-29T01:54:15.994Z,0
2022-11-29T01:55:23.110Z,-0.1
2022-11-29T01:56:30.293Z,0
2022-11-29T01:57:37.606Z,0
2022-11-29T01:58:44.659Z,0
2022-11-29T01:59:51.742Z,0.1
2022-11-29T02:00:58.886Z,0.1
2022-11-29T02:02:06.204Z,0
2022-11-29T02:03:16.090Z,0.1
2022-11-29T02:04:23.218Z,0.1
2022-11-29T02:05:31.399Z,0.1
2022-11-29T02:06:38.598Z,0.2
2022-11-29T02:07:45.808Z,0.2
2022-11-29T02:08:52.890Z,0.2
2022-11-29T02:09:59.965Z,0.2
2022-11-29T02:11:06.947Z,0.2
2022-11-29T02:12:21.706Z,0.2
2022-11-29T02:13:28.983Z,0.2
2022-11-29T02:14:36.136Z,0.2
2022-11-29T02:15:53.546Z,0.1
2022-11-29T02:17:05.805Z,0.1
2022-11-29T02:18:18.250Z,0.1
2022-11-29T02:19:30.550Z,0.1
2022-11-29T02:20:37.723Z,0.1
2022-11-29T02:21:50.041Z,0.1
2022-11-29T02:23:05.228Z,0.1
2022-11-29T02:24:20.353Z,0.1
2022-11-29T02:25:37.874Z,0.1
2022-11-29T02:26:55.386Z,0.1
2022-11-29T02:28:10.218Z,0.1
2022-11-29T02:29:27.574Z,0.1
2022-11-29T02:30:44.929Z,0.1
2022-11-29T02:32:02.233Z,0.1
2022-11-29T02:33:19.682Z,0.1
2022-11-29T02:34:31.684Z,0.1
2022-11-29T02:35:43.997Z,0.1
2022-11-29T02:36:59.347Z,0.1
2022-11-29T02:38:14.552Z,0
2022-11-29T02:39:31.749Z,0
2022-11-29T02:40:47.106Z,0
2022-11-29T02:41:59.382Z,0
2022-11-29T02:43:13.970Z,0
2022-11-29T02:44:26.338Z,0
2022-11-29T02:45:43.684Z,0
2022-11-29T02:46:55.946Z,0
2022-11-29T02:48:06.042Z,0
2022-11-29T02:49:21.337Z,0
2022-11-29T02:50:28.434Z,0
2022-11-29T02:51:35.473Z,0
2022-11-29T02:52:52.766Z,0.1
2022-11-29T02:54:08.031Z,0.1
2022-11-29T02:55:20.174Z,0.1
2022-11-29T02:56:37.491Z,0.1
2022-11-29T02:57:44.763Z,0.2
2022-11-29T02:59:02.159Z,0.1
2022-11-29T03:00:09.013Z,0.2
2022-11-29T03:01:21.793Z,0.2
2022-11-29T03:02:34.259Z,0.1
2022-11-29T03:03:46.794Z,0.1
2022-11-29T03:04:58.950Z,0.1
2022-11-29T03:06:13.682Z,0.1
2022-11-29T03:07:29.430Z,0
2022-11-29T03:08:46.965Z,0
2022-11-29T03:09:59.237Z,0
2022-11-29T03:11:12.551Z,0
2022-11-29T03:12:24.873Z,0
2022-11-29T03:13:34.630Z,-0.1
2022-11-29T03:14:47.082Z,0
2022-11-29T03:15:53.988Z,0
2022-11-29T03:17:01.093Z,0
2022-11-29T03:18:10.554Z,0
2022-11-29T03:19:22.745Z,0
2022-11-29T03:20:33.015Z,0
2022-11-29T03:21:45.961Z,0
2022-11-29T03:23:01.058Z,0
2022-11-29T03:24:19.689Z,0
2022-11-29T03:25:30.143Z,0
2022-11-29T03:26:42.290Z,0.1
2022-11-29T03:27:49.357Z,0.1
2022-11-29T03:28:56.458Z,0.1
2022-11-29T03:30:06.685Z,0.1
2022-11-29T03:31:14.193Z,0.1
2022-11-29T03:32:29.633Z,0.2
2022-11-29T03:33:44.763Z,0.1
2022-11-29T03:34:56.908Z,0.1
2022-11-29T03:36:01.558Z,0.1
2022-11-29T03:37:14.110Z,0.1
2022-11-29T03:38:21.274Z,0.2
2022-11-29T03:39:33.515Z,0.1
2022-11-29T03:40:40.764Z,0.1
2022-11-29T03:41:58.101Z,0.1
2022-11-29T03:43:08.057Z,0.2
2022-11-29T03:44:23.314Z,0.2
2022-11-29T03:45:35.553Z,0.2
2022-11-29T03:46:47.865Z,0.2
2022-11-29T03:47:58.061Z,0.2
2022-11-29T03:49:05.153Z,0.2
2022-11-29T03:50:14.641Z,0.1
2022-11-29T03:51:21.870Z,0.1
2022-11-29T03:52:37.206Z,0.1
2022-11-29T03:53:52.426Z,0.1
2022-11-29T03:54:59.657Z,0.1
2022-11-29T03:56:11.721Z,0.1
2022-11-29T03:57:28.993Z,0.1
2022-11-29T03:58:43.794Z,0.1
2022-11-29T03:59:56.149Z,0.1
2022-11-29T04:01:06.380Z,0.1
2022-11-29T04:02:18.400Z,0.1
2022-11-29T04:03:35.791Z,0.1
2022-11-29T04:04:47.992Z,0.1
2022-11-29T04:06:05.416Z,0.1
2022-11-29T04:07:23.089Z,0.1
2022-11-29T04:08:37.745Z,0.1
2022-11-29T04:09:55.163Z,0.1
2022-11-29T04:11:12.845Z,0.1
2022-11-29T04:12:30.131Z,0.1
2022-11-29T04:13:47.475Z,0.1
2022-11-29T04:15:04.793Z,0.1
2022-11-29T04:16:16.930Z,0
2022-11-29T04:17:34.177Z,0.1
2022-11-29T04:18:46.362Z,0.1
2022-11-29T04:19:56.545Z,0.1
2022-11-29T04:21:08.597Z,0.1
2022-11-29T04:22:25.897Z,0.1
2022-11-29T04:23:43.281Z,0.1
2022-11-29T04:24:58.620Z,0
2022-11-29T04:26:16.481Z,0
2022-11-29T04:27:31.958Z,0
2022-11-29T04:28:49.369Z,0
2022-11-29T04:29:59.069Z,0
2022-11-29T04:31:11.867Z,0
2022-11-29T04:32:23.922Z,0
2022-11-29T04:33:36.014Z,0.1
2022-11-29T04:34:53.486Z,0
2022-11-29T04:36:05.677Z,0
2022-11-29T04:37:23.345Z,0
2022-11-29T04:38:30.445Z,0
2022-11-29T04:39:45.788Z,0
2022-11-29T04:41:03.025Z,0
2022-11-29T04:42:20.373Z,0
2022-11-29T04:43:37.621Z,0
2022-11-29T04:44:54.897Z,0
2022-11-29T04:46:12.587Z,0
2022-11-29T04:47:27.812Z,0
2022-11-29T04:48:38.021Z,0
2022-11-29T04:49:55.372Z,0
2022-11-29T04:51:13.372Z,0
2022-11-29T04:52:28.361Z,0
2022-11-29T04:53:40.700Z,0
2022-11-29T04:54:52.865Z,0
2022-11-29T04:56:07.884Z,-0.1
2022-11-29T04:57:17.620Z,0
2022-11-29T04:58:24.713Z,0
2022-11-29T04:59:42.202Z,0
2022-11-29T05:00:59.632Z,0
2022-11-29T05:02:17.271Z,0
2022-11-29T05:03:32.324Z,0
2022-11-29T05:04:42.805Z,0
2022-11-29T05:05:55.357Z,0
2022-11-29T05:07:02.475Z,0.1
2022-11-29T05:08:17.824Z,0.1
2022-11-29T05:09:32.889Z,0.1
2022-11-29T05:10:45.153Z,0.1
2022-11-29T05:11:54.946Z,0.1
2022-11-29T05:13:10.033Z,0.1
2022-11-29T05:14:22.314Z,0.2
2022-11-29T05:15:37.117Z,0.2
2022-11-29T05:16:54.466Z,0.2
2022-11-29T05:18:11.584Z,0.2
2022-11-29T05:19:29.060Z,0.2
2022-11-29T05:20:41.221Z,0.1
2022-11-29T05:21:56.520Z,0.1
2022-11-29T05:23:13.781Z,0
2022-11-29T05:24:28.556Z,0
2022-11-29T05:25:45.924Z,0
2022-11-29T05:26:58.125Z,0
2022-11-29T05:28:09.775Z,0
2022-11-29T05:29:22.465Z,0
2022-11-29T05:30:29.633Z,0.1
2022-11-29T05:31:41.852Z,0.1
2022-11-29T05:32:52.153Z,0.1
2022-11-29T05:33:59.225Z,0.1
2022-11-29T05:35:14.457Z,0.1
2022-11-29T05:36:32.146Z,0
2022-11-29T05:37:39.336Z,0.1
2022-11-29T05:38:54.743Z,0
2022-11-29T05:40:07.757Z,0
2022-11-29T05:41:15.081Z,-0.1
2022-11-29T05:42:32.692Z,-0.2
2022-11-29T05:43:45.952Z,-0.1
2022-11-29T05:44:53.236Z,-0.1
2022-11-29T05:46:00.397Z,-0.1
2022-11-29T05:47:17.921Z,-0.1
2022-11-29T05:48:25.267Z,-0.1
2022-11-29T05:49:37.726Z,-0.2
2022-11-29T05:50:55.244Z,-0.2
2022-11-29T05:52:12.984Z,-0.1
2022-11-29T05:53:30.235Z,-0.1
2022-11-29T05:54:40.429Z,-0.1
2022-11-29T05:55:57.800Z,-0.1
2022-11-29T05:57:12.958Z,-0.1
2022-11-29T05:58:30.455Z,0
2022-11-29T05:59:35.440Z,0
2022-11-29T06:00:42.540Z,0
2022-11-29T06:01:49.725Z,-0.1
2022-11-29T06:03:05.149Z,0
2022-11-29T06:04:17.583Z,0
2022-11-29T06:05:33.656Z,0
2022-11-29T06:06:40.664Z,0
2022-11-29T06:07:52.793Z,0
2022-11-29T06:09:05.015Z,-0.1
2022-11-29T06:10:17.228Z,-0.1
2022-11-29T06:11:24.297Z,0
2022-11-29T06:12:32.573Z,0
2022-11-29T06:13:39.684Z,0
2022-11-29T06:14:51.865Z,0
2022-11-29T06:15:59.285Z,0
2022-11-29T06:17:14.197Z,0
2022-11-29T06:18:29.412Z,0
2022-11-29T06:19:46.852Z,0
2022-11-29T06:20:59.297Z,-0.1
2022-11-29T06:22:08.976Z,-0.1
2022-11-29T06:23:17.196Z,-0.1
2022-11-29T06:24:29.377Z,-0.1
2022-11-29T06:25:44.700Z,-0.1
2022-11-29T06:27:00.008Z,-0.1
2022-11-29T06:28:12.595Z,-0.1
2022-11-29T06:29:27.360Z,-0.1
2022-11-29T06:30:44.736Z,-0.1
2022-11-29T06:31:57.089Z,-0.1
2022-11-29T06:33:06.616Z,-0.1
2022-11-29T06:34:19.552Z,-0.1
2022-11-29T06:35:29.005Z,-0.1
2022-11-29T06:36:43.764Z,-0.1
2022-11-29T06:38:01.115Z,-0.1
2022-11-29T06:39:11.133Z,0
2022-11-29T06:40:18.228Z,0
2022-11-29T06:41:25.413Z,-0.1
2022-11-29T06:42:32.629Z,-0.1
2022-11-29T06:43:39.688Z,-0.1
2022-11-29T06:44:47.216Z,-0.1
2022-11-29T06:45:54.138Z,0
2022-11-29T06:47:04.303Z,0
2022-11-29T06:48:19.297Z,0
2022-11-29T06:49:29.185Z,0
2022-11-29T06:50:46.839Z,-0.1
2022-11-29T06:51:59.559Z,0.1
2022-11-29T06:53:17.253Z,0
2022-11-29T06:54:29.502Z,0.1
2022-11-29T06:55:41.741Z,0.2
2022-11-29T06:56:48.879Z,0.1
2022-11-29T06:58:01.097Z,0.2
2022-11-29T06:59:13.572Z,0.2
2022-11-29T07:00:20.769Z,0.2
2022-11-29T07:01:30.983Z,0.2
2022-11-29T07:02:45.880Z,0.3
2022-11-29T07:04:01.129Z,0.3
2022-11-29T07:05:16.312Z,0.3
2022-11-29T07:06:23.375Z,0.3
2022-11-29T07:07:30.613Z,0.4
2022-11-29T07:08:37.832Z,0.4
2022-11-29T07:09:44.912Z,0.4
2022-11-29T07:10:55.075Z,0.5
2022-11-29T07:12:02.384Z,0.5
2022-11-29T07:13:09.841Z,0.5
2022-11-29T07:14:17.279Z,0.5
2022-11-29T07:15:24.484Z,0.5
2022-11-29T07:16:31.671Z,0.5
2022-11-29T07:17:46.740Z,0.6
2022-11-29T07:19:04.259Z,0.6
2022-11-29T07:20:16.348Z,0.6
2022-11-29T07:21:33.767Z,0.6
2022-11-29T07:22:51.124Z,0.7
2022-11-29T07:24:00.791Z,0.8
2022-11-29T07:25:12.965Z,0.8
2022-11-29T07:26:30.153Z,0.8
2022-11-29T07:27:42.472Z,0.9
2022-11-29T07:28:57.316Z,0.8
2022-11-29T07:30:07.574Z,0.9
2022-11-29T07:31:20.084Z,0.9
2022-11-29T07:32:32.280Z,1
2022-11-29T07:33:41.968Z,1
2022-11-29T07:34:54.704Z,1.1
2022-11-29T07:36:04.398Z,1.2
2022-11-29T07:37:22.066Z,1.3
2022-11-29T07:38:34.265Z,1.2
2022-11-29T07:39:51.725Z,1.2
2022-11-29T07:41:09.632Z,1.3
2022-11-29T07:42:27.207Z,1.3
2022-11-29T07:43:39.716Z,1.3
2022-11-29T07:44:52.231Z,1.4
2022-11-29T07:46:04.490Z,1.4
2022-11-29T07:47:11.370Z,1.4
2022-11-29T07:48:18.967Z,1.5
2022-11-29T07:49:26.363Z,1.5
2022-11-29T07:50:33.736Z,1.5
2022-11-29T07:51:41.004Z,1.5
2022-11-29T07:52:49.149Z,1.6
2022-11-29T07:53:55.963Z,1.7
2022-11-29T07:55:03.115Z,1.6
2022-11-29T07:56:10.643Z,1.6
2022-11-29T07:57:17.699Z,1.7
2022-11-29T07:58:24.821Z,1.6
2022-11-29T07:59:32.289Z,1.7
2022-11-29T08:00:39.633Z,1.7
2022-11-29T08:01:46.842Z,1.7
2022-11-29T08:02:54.184Z,1.8
2022-11-29T08:04:01.574Z,1.8
2022-11-29T08:05:08.508Z,1.8
2022-11-29T08:06:15.639Z,1.8
2022-11-29T08:07:27.978Z,1.8
2022-11-29T08:08:37.815Z,1.9
2022-11-29T08:09:42.512Z,1.9
2022-11-29T08:10:49.370Z,2
2022-11-29T08:11:56.573Z,2
2022-11-29T08:13:03.629Z,2
2022-11-29T08:14:10.626Z,2.1
2022-11-29T08:15:17.778Z,2
2022-11-29T08:16:24.917Z,2
2022-11-29T08:17:32.409Z,2
2022-11-29T08:18:39.760Z,2.1
2022-11-29T08:19:46.840Z,2.2
2022-11-29T08:20:54.072Z,2.2
2022-11-29T08:22:01.168Z,2.3
2022-11-29T08:23:08.546Z,2.3
2022-11-29T08:24:15.782Z,2.2
2022-11-29T08:25:22.891Z,2.2
2022-11-29T08:26:31.725Z,2.3
2022-11-29T08:27:37.209Z,2.3
2022-11-29T08:28:44.403Z,2.3
2022-11-29T08:29:54.070Z,2.3
2022-11-29T08:31:01.304Z,2.3
2022-11-29T08:32:08.375Z,2.3
2022-11-29T08:33:15.312Z,2.3
2022-11-29T08:34:22.452Z,2.3
2022-11-29T08:35:29.557Z,2.3
2022-11-29T08:36:36.956Z,2.3
2022-11-29T08:37:43.930Z,2.4
2022-11-29T08:38:55.378Z,2.4
2022-11-29T08:39:58.301Z,2.4
2022-11-29T08:41:05.332Z,2.5
2022-11-29T08:42:12.488Z,2.5
2022-11-29T08:43:19.504Z,2.4
2022-11-29T08:44:26.596Z,2.5
2022-11-29T08:45:33.831Z,2.6
2022-11-29T08:46:40.973Z,2.6
2022-11-29T08:47:53.314Z,2.7
2022-11-29T08:49:00.317Z,2.7
2022-11-29T08:50:07.513Z,2.8
2022-11-29T08:51:14.512Z,2.7
2022-11-29T08:52:21.753Z,2.8
2022-11-29T08:53:33.994Z,2.7
2022-11-29T08:54:46.279Z,2.7
2022-11-29T08:55:54.268Z,2.8
2022-11-29T08:58:08.730Z,2.8
2022-11-29T08:59:15.611Z,2.8
2022-11-29T09:00:22.791Z,2.7
2022-11-29T09:01:29.926Z,2.7
2022-11-29T09:02:37.211Z,2.8
2022-11-29T09:03:44.295Z,2.8
2022-11-29T09:04:56.683Z,2.8
2022-11-29T09:06:06.394Z,2.7
2022-11-29T09:07:15.580Z,2.7
2022-11-29T09:08:22.255Z,2.8
2022-11-29T09:09:29.569Z,2.8
2022-11-29T09:10:36.614Z,2.8
2022-11-29T09:11:46.952Z,2.8
2022-11-29T09:12:50.969Z,2.8
2022-11-29T09:13:58.211Z,2.9
2022-11-29T09:15:05.253Z,2.9
2022-11-29T09:16:13.276Z,2.9
2022-11-29T09:17:20.381Z,3
2022-11-29T09:18:27.518Z,2.8
2022-11-29T09:19:34.701Z,2.8
2022-11-29T09:20:41.891Z,2.8
2022-11-29T09:21:49.013Z,2.9
2022-11-29T09:22:56.111Z,2.9
2022-11-29T09:24:03.321Z,2.9
2022-11-29T09:25:10.346Z,2.9
2022-11-29T09:26:17.342Z,2.9
2022-11-29T09:27:24.561Z,2.9
2022-11-29T09:28:31.690Z,2.8
2022-11-29T09:29:38.801Z,2.9
2022-11-29T09:30:45.920Z,2.9
2022-11-29T09:31:53.217Z,2.9
2022-11-29T09:33:00.220Z,3
2022-11-29T09:34:07.316Z,2.9
2022-11-29T09:35:17.418Z,2.8
2022-11-29T09:36:28.346Z,2.9
2022-11-29T09:37:31.699Z,3
2022-11-29T09:38:38.881Z,2.9
2022-11-29T09:39:45.975Z,2.9
2022-11-29T09:40:53.085Z,3
2022-11-29T09:42:00.359Z,3
2022-11-29T09:43:13.949Z,3.1
2022-11-29T09:44:26.096Z,3.2
2022-11-29T09:45:40.952Z,3.1
2022-11-29T09:46:48.315Z,3.2
2022-11-29T09:48:06.023Z,3.2
2022-11-29T09:49:18.541Z,3
2022-11-29T09:50:33.231Z,3.2
2022-11-29T09:51:44.130Z,3.2
2022-11-29T09:52:52.706Z,3.2
2022-11-29T09:54:10.391Z,3.2
2022-11-29T09:55:25.642Z,3.2
2022-11-29T09:56:42.975Z,3.2
2022-11-29T09:57:50.228Z,3.2
2022-11-29T09:58:57.345Z,3.3
2022-11-29T10:00:09.867Z,3.3
2022-11-29T10:01:20.105Z,3.3
2022-11-29T10:02:27.341Z,3.3
2022-11-29T10:03:44.671Z,3.3
2022-11-29T10:04:57.855Z,3.3
2022-11-29T10:06:10.334Z,3.4
2022-11-29T10:07:22.587Z,3.4
2022-11-29T10:08:37.681Z,3.4
2022-11-29T10:09:47.864Z,3.5
2022-11-29T10:11:00.024Z,3.5
2022-11-29T10:12:12.349Z,3.6
2022-11-29T10:13:22.569Z,3.7
2022-11-29T10:14:29.817Z,3.7
2022-11-29T10:15:42.024Z,3.8
2022-11-29T10:16:50.079Z,3.9
2022-11-29T10:17:57.428Z,4
2022-11-29T10:19:12.816Z,3.9
2022-11-29T10:20:28.724Z,4
2022-11-29T10:21:36.465Z,3.9
2022-11-29T10:22:43.611Z,3.9
2022-11-29T10:23:59.029Z,4.1
2022-11-29T10:25:06.025Z,4.1
2022-11-29T10:26:13.008Z,4.1
2022-11-29T10:27:20.196Z,4.1
2022-11-29T10:28:27.470Z,4.1
2022-11-29T10:29:34.582Z,4.1
2022-11-29T10:30:41.782Z,4.1
2022-11-29T10:31:48.890Z,4.1
2022-11-29T10:32:56.042Z,4.1
2022-11-29T10:34:03.174Z,4
2022-11-29T10:35:16.147Z,4
2022-11-29T10:36:23.350Z,4
2022-11-29T10:37:33.122Z,3.9
2022-11-29T10:38:42.617Z,4
2022-11-29T10:39:50.072Z,4
2022-11-29T10:40:59.041Z,4
2022-11-29T10:42:09.370Z,4
2022-11-29T10:43:17.056Z,4
2022-11-29T10:44:24.320Z,4.1
2022-11-29T10:45:31.854Z,4.2
2022-11-29T10:46:44.562Z,4.2
2022-11-29T10:47:52.218Z,4.3
2022-11-29T10:49:02.415Z,4.4
2022-11-29T10:50:09.559Z,4.5
2022-11-29T10:51:16.639Z,4.6
2022-11-29T10:52:23.987Z,4.5
2022-11-29T10:53:31.043Z,4.5
2022-11-29T10:54:43.139Z,4.6
2022-11-29T10:55:49.999Z,4.7
2022-11-29T10:57:05.401Z,4.8
2022-11-29T10:58:20.959Z,4.9
2022-11-29T10:59:30.227Z,5
2022-11-29T11:00:38.402Z,5
2022-11-29T11:01:45.887Z,5.1
2022-11-29T11:02:53.040Z,5.1
2022-11-29T11:04:00.320Z,5.1
2022-11-29T11:05:07.595Z,5.1
2022-11-29T11:06:14.845Z,5.2
2022-11-29T11:07:21.886Z,5.2
2022-11-29T11:08:34.233Z,5.1
2022-11-29T11:09:41.352Z,5.3
2022-11-29T11:10:53.734Z,5.3
2022-11-29T11:11:58.208Z,5.2
2022-11-29T11:13:05.301Z,5.3
2022-11-29T11:14:12.404Z,5.4
2022-11-29T11:15:24.602Z,5.4
2022-11-29T11:16:36.974Z,5.4
2022-11-29T11:17:39.241Z,5.4
2022-11-29T11:18:46.495Z,5.4
2022-11-29T11:19:53.795Z,5.4
2022-11-29T11:21:00.892Z,5.4
2022-11-29T11:22:08.149Z,5.5
2022-11-29T11:23:15.401Z,5.4
2022-11-29T11:24:27.581Z,5.5
2022-11-29T11:25:34.860Z,5.5
2022-11-29T11:26:41.896Z,5.5
2022-11-29T11:27:49.048Z,5.5
2022-11-29T11:28:56.202Z,5.4
2022-11-29T11:30:03.308Z,5.5
2022-11-29T11:31:15.909Z,5.5
2022-11-29T11:32:33.664Z,5.5
2022-11-29T11:33:41.049Z,5.4
2022-11-29T11:34:48.508Z,5.4
2022-11-29T11:35:55.672Z,5.4
2022-11-29T11:37:06.016Z,5.4
2022-11-29T11:38:18.593Z,5.4
2022-11-29T11:39:25.724Z,5.2
2022-11-29T11:40:32.899Z,5.2
2022-11-29T11:41:40.112Z,5.2
2022-11-29T11:42:52.377Z,5.2
2022-11-29T11:44:07.099Z,5.1
2022-11-29T11:45:09.672Z,5.2
2022-11-29T11:46:18.057Z,5.1
2022-11-29T11:47:24.050Z,5
2022-11-29T11:48:31.545Z,5
2022-11-29T11:49:38.620Z,4.9
2022-11-29T11:50:50.872Z,4.8
2022-11-29T11:51:57.897Z,4.9
2022-11-29T11:53:05.148Z,4.9
2022-11-29T11:54:20.158Z,4.9
2022-11-29T11:55:27.506Z,4.9
2022-11-29T11:56:37.560Z,4.9
2022-11-29T11:57:45.156Z,4.9
2022-11-29T11:58:53.296Z,4.9
2022-11-29T12:00:05.163Z,4.9
2022-11-29T12:01:07.700Z,4.9
2022-11-29T12:02:20.113Z,4.9
2022-11-29T12:03:27.460Z,5
2022-11-29T12:04:39.664Z,4.9
2022-11-29T12:05:46.816Z,4.9
2022-11-29T12:06:53.944Z,4.8
2022-11-29T12:08:08.335Z,4.7
2022-11-29T12:09:13.749Z,4.8
2022-11-29T12:10:30.932Z,4.8
2022-11-29T12:11:38.245Z,4.8
2022-11-29T12:12:55.496Z,4.9
2022-11-29T12:14:02.621Z,5
2022-11-29T12:15:09.874Z,4.9
2022-11-29T12:16:27.448Z,4.8
2022-11-29T12:17:34.597Z,4.9
2022-11-29T12:18:42.172Z,5
2022-11-29T12:19:52.058Z,5
2022-11-29T12:20:59.069Z,4.8
2022-11-29T12:22:15.049Z,5
2022-11-29T12:23:22.500Z,4.7
2022-11-29T12:24:32.092Z,4.7
2022-11-29T12:25:39.306Z,4.8
2022-11-29T12:26:59.283Z,4.9
2022-11-29T12:27:58.637Z,4.9
2022-11-29T12:29:05.813Z,5
2022-11-29T12:30:15.932Z,5
2022-11-29T12:31:23.194Z,5.1
2022-11-29T12:32:45.956Z,5.1
2022-11-29T12:33:58.544Z,5.1
2022-11-29T12:35:18.730Z,4.9
2022-11-29T12:36:33.760Z,4.9
2022-11-29T12:37:48.946Z,4.9
2022-11-29T12:39:01.260Z,4.9
2022-11-29T12:40:19.248Z,4.8
2022-11-29T12:41:33.173Z,4.8
2022-11-29T12:42:46.920Z,4.8
2022-11-29T12:43:59.345Z,4.7
2022-11-29T12:45:16.634Z,4.8
2022-11-29T12:46:24.801Z,4.7
2022-11-29T12:47:35.937Z,4.6
2022-11-29T12:48:41.923Z,4.7
2022-11-29T12:49:59.265Z,4.7
2022-11-29T12:51:11.288Z,4.7
2022-11-29T12:52:28.599Z,4.8
2022-11-29T12:53:40.885Z,4.8
2022-11-29T12:54:48.375Z,4.8
2022-11-29T12:56:03.366Z,4.8
2022-11-29T12:57:15.145Z,4.8
2022-11-29T12:58:22.474Z,4.9
2022-11-29T12:59:35.057Z,4.9
2022-11-29T13:00:52.634Z,4.8
2022-11-29T13:02:10.382Z,4.9
2022-11-29T13:03:27.641Z,4.8
2022-11-29T13:04:43.023Z,4.8
2022-11-29T13:05:55.243Z,4.8
2022-11-29T13:07:08.859Z,4.7
2022-11-29T13:08:22.711Z,4.8
2022-11-29T13:09:35.783Z,4.8
2022-11-29T13:10:48.338Z,4.8
2022-11-29T13:12:05.989Z,4.8
2022-11-29T13:13:16.382Z,4.8
2022-11-29T13:14:42.425Z,4.7
2022-11-29T13:15:47.588Z,4.7
2022-11-29T13:17:05.182Z,4.7
2022-11-29T13:18:12.486Z,4.7
2022-11-29T13:19:29.770Z,4.8
2022-11-29T13:20:42.122Z,4.8
2022-11-29T13:21:54.434Z,4.7
2022-11-29T13:23:12.019Z,4.7
2022-11-29T13:24:21.796Z,4.6
2022-11-29T13:25:28.852Z,4.6
2022-11-29T13:26:41.661Z,4.6
2022-11-29T13:27:48.819Z,4.5
2022-11-29T13:29:01.126Z,4.5
2022-11-29T13:30:09.118Z,4.6
2022-11-29T13:31:17.666Z,4.3
2022-11-29T13:32:25.254Z,4.4
2022-11-29T13:33:35.037Z,4.5
2022-11-29T13:34:49.910Z,4.5
2022-11-29T13:35:57.102Z,4.6
2022-11-29T13:37:09.357Z,4.5
2022-11-29T13:38:21.957Z,4.6
2022-11-29T13:39:34.185Z,4.6
2022-11-29T13:40:46.417Z,4.6
2022-11-29T13:42:03.686Z,4.5
2022-11-29T13:43:13.861Z,4.5
2022-11-29T13:44:23.494Z,4.5
2022-11-29T13:45:40.789Z,4.5
2022-11-29T13:46:48.072Z,4.5
2022-11-29T13:48:00.365Z,4.5
2022-11-29T13:49:07.409Z,4.4
2022-11-29T13:50:22.562Z,4.4
2022-11-29T13:51:39.882Z,4.5
2022-11-29T13:52:47.193Z,4.5
2022-11-29T13:53:54.316Z,4.4
2022-11-29T13:55:01.381Z,4.5
2022-11-29T13:56:14.449Z,4.5
2022-11-29T13:57:43.116Z,4.5
2022-11-29T13:58:47.299Z,4.4
2022-11-29T13:59:57.873Z,4.4
2022-11-29T14:01:05.109Z,4.4
2022-11-29T14:02:12.472Z,4.3
2022-11-29T14:03:29.771Z,4.3
2022-11-29T14:04:37.190Z,4.3
2022-11-29T14:05:44.114Z,4.3
2022-11-29T14:06:53.832Z,4.2
2022-11-29T14:08:11.786Z,4.2
2022-11-29T14:09:27.058Z,4.1
2022-11-29T14:10:37.123Z,4.1
2022-11-29T14:11:44.256Z,4.1
2022-11-29T14:12:51.460Z,4.1
2022-11-29T14:13:58.605Z,4.1
2022-11-29T14:15:13.749Z,4.1
2022-11-29T14:16:26.080Z,4.1
2022-11-29T14:17:38.361Z,4
2022-11-29T14:18:55.549Z,4.1
2022-11-29T14:20:07.837Z,4.1
2022-11-29T14:21:25.411Z,4
2022-11-29T14:22:42.729Z,3.9
2022-11-29T14:23:55.125Z,3.9
2022-11-29T14:25:11.760Z,3.9
2022-11-29T14:26:09.604Z,3.8
2022-11-29T14:27:22.504Z,3.8
2022-11-29T14:28:29.502Z,3.8
2022-11-29T14:29:39.190Z,3.7
2022-11-29T14:30:51.744Z,3.6
2022-11-29T14:31:58.576Z,3.6
2022-11-29T14:33:05.692Z,3.6
2022-11-29T14:34:20.908Z,3.5
2022-11-29T14:35:27.835Z,3.5
2022-11-29T14:36:42.644Z,3.4
2022-11-29T14:37:49.915Z,3.3
2022-11-29T14:39:07.587Z,3.3
2022-11-29T14:40:23.070Z,3.3
2022-11-29T14:41:35.522Z,3.3
2022-11-29T14:42:52.847Z,3.2
2022-11-29T14:44:00.015Z,3.2
2022-11-29T14:45:09.723Z,3.2
2022-11-29T14:46:29.351Z,3.2
2022-11-29T14:47:34.562Z,3.2
2022-11-29T14:48:41.691Z,3.2
2022-11-29T14:49:48.871Z,3.1
2022-11-29T14:50:55.935Z,3.1
2022-11-29T14:52:13.206Z,3.1
2022-11-29T14:53:25.641Z,3.1
2022-11-29T14:54:33.022Z,3.1
2022-11-29T14:55:40.338Z,3
2022-11-29T14:56:47.418Z,3
2022-11-29T14:57:54.531Z,3
2022-11-29T14:59:04.715Z,2.9
2022-11-29T15:00:22.407Z,2.9
2022-11-29T15:01:39.853Z,2.9
2022-11-29T15:02:47.427Z,2.9
2022-11-29T15:03:54.547Z,2.9
2022-11-29T15:05:01.802Z,2.9
2022-11-29T15:06:08.854Z,2.9
2022-11-29T15:07:19.055Z,2.9
2022-11-29T15:08:34.166Z,2.8
2022-11-29T15:09:47.314Z,2.9
2022-11-29T15:10:54.678Z,2.8
2022-11-29T15:12:06.912Z,2.8
2022-11-29T15:13:13.853Z,2.8
2022-11-29T15:14:20.957Z,2.7
2022-11-29T15:15:38.346Z,2.7
2022-11-29T15:16:50.667Z,2.7
2022-11-29T15:18:07.936Z,2.6
2022-11-29T15:19:23.202Z,2.6
2022-11-29T15:20:35.329Z,2.6
2022-11-29T15:21:47.918Z,2.6
2022-11-29T15:23:03.369Z,2.6
2022-11-29T15:24:10.486Z,2.6
2022-11-29T15:25:17.478Z,2.5
2022-11-29T15:26:27.223Z,2.4
2022-11-29T15:27:38.801Z,2.5
2022-11-29T15:28:41.670Z,2.5
2022-11-29T15:29:48.667Z,2.5
2022-11-29T15:30:55.839Z,2.5
2022-11-29T15:32:06.067Z,2.5
2022-11-29T15:33:12.998Z,2.4
2022-11-29T15:34:20.176Z,2.4
2022-11-29T15:35:32.371Z,2.4
2022-11-29T15:36:39.567Z,2.4
2022-11-29T15:37:46.886Z,2.4
2022-11-29T15:38:53.969Z,2.4
2022-11-29T15:40:01.179Z,2.3
2022-11-29T15:41:13.782Z,2.3
2022-11-29T15:42:25.242Z,2.3
2022-11-29T15:43:30.995Z,2.3
2022-11-29T15:44:38.163Z,2.3
2022-11-29T15:45:48.417Z,2.2
2022-11-29T15:46:55.494Z,2.2
2022-11-29T15:48:13.210Z,2.1
2022-11-29T15:49:23.110Z,2.1
2022-11-29T15:50:29.989Z,2.1
2022-11-29T15:51:37.142Z,2.1
2022-11-29T15:52:44.370Z,2
2022-11-29T15:53:53.934Z,2
2022-11-29T15:54:58.645Z,2
2022-11-29T15:56:06.065Z,1.9
2022-11-29T15:57:18.335Z,1.9
2022-11-29T15:58:28.099Z,1.9
2022-11-29T15:59:35.466Z,1.9
2022-11-29T16:00:50.566Z,1.8
2022-11-29T16:01:57.954Z,1.8
2022-11-29T16:03:04.985Z,1.8
2022-11-29T16:04:12.393Z,1.8
2022-11-29T16:05:19.478Z,1.7
2022-11-29T16:06:26.653Z,1.7
2022-11-29T16:07:44.166Z,1.7
2022-11-29T16:08:51.209Z,1.6
2022-11-29T16:09:58.323Z,1.6
2022-11-29T16:11:05.438Z,1.6
2022-11-29T16:12:12.462Z,1.5
2022-11-29T16:13:19.614Z,1.6
2022-11-29T16:14:31.875Z,1.6
2022-11-29T16:15:39.029Z,1.6
2022-11-29T16:16:46.424Z,1.6
2022-11-29T16:17:53.285Z,1.6
2022-11-29T16:19:00.441Z,1.6
2022-11-29T16:20:12.609Z,1.5
2022-11-29T16:21:19.688Z,1.5